createdAt,value
2018-02-09T00:00:59.549Z,0.00
2018-02-09T00:01:59.569Z,0.00
2018-02-09T00:02:59.549Z,0.00
2018-02-09T00:03:59.581Z,0.00
2018-02-09T00:04:59.535Z,0.00
2018-02-09T00:05:59.594Z,0.00
2018-02-09T00:06:59.541Z,0.00
2018-02-09T00:07:59.599Z,0.00
2018-02-09T00:08:59.543Z,0.00
2018-02-09T00:09:59.618Z,0.00
2018-02-09T00:10:59.541Z,0.00
2018-02-09T00:11:59.632Z,0.00
2018-02-09T00:12:59.545Z,0.00
2018-02-09T00:13:59.644Z,0.00
2018-02-09T00:14:59.542Z,0.00
2018-02-09T00:15:59.550Z,0.00
2018-02-09T00:16:59.537Z,0.00
2018-02-09T00:17:59.566Z,0.00
2018-02-09T00:18:59.566Z,0.00
2018-02-09T00:19:59.599Z,0.00
2018-02-09T00:20:59.550Z,0.00
2018-02-09T00:21:59.595Z,0.00
2018-02-09T00:22:59.538Z,0.00
2018-02-09T00:24:00.628Z,0.00
2018-02-09T00:24:59.544Z,0.00
2018-02-09T00:25:59.621Z,0.00
2018-02-09T00:26:59.540Z,0.00
2018-02-09T00:27:59.633Z,0.00
2018-02-09T00:28:59.538Z,0.00
2018-02-09T00:29:59.645Z,0.00
2018-02-09T00:30:59.547Z,0.00
2018-02-09T00:32:00.584Z,0.00
2018-02-09T00:32:59.543Z,0.00
2018-02-09T00:33:59.568Z,0.00
2018-02-09T00:34:59.539Z,0.00
2018-02-09T00:35:59.585Z,0.00
2018-02-09T00:36:59.544Z,0.00
2018-02-09T00:37:59.598Z,0.00
2018-02-09T00:38:59.542Z,0.00
2018-02-09T00:39:59.635Z,0.00
2018-02-09T00:40:59.543Z,0.00
2018-02-09T00:41:59.624Z,0.00
2018-02-09T00:42:59.541Z,0.00
2018-02-09T00:44:00.677Z,0.00
2018-02-09T00:44:59.567Z,0.00
2018-02-09T00:45:59.675Z,0.00
2018-02-09T00:46:59.550Z,0.00
2018-02-09T00:47:59.561Z,0.00
2018-02-09T00:48:59.538Z,0.00
2018-02-09T00:49:59.576Z,0.00
2018-02-09T00:50:59.538Z,0.00
2018-02-09T00:51:59.586Z,0.00
2018-02-09T00:52:59.544Z,0.00
2018-02-09T00:53:59.597Z,0.00
2018-02-09T00:54:59.542Z,0.00
2018-02-09T00:55:59.612Z,0.00
2018-02-09T00:56:59.543Z,0.00
2018-02-09T00:57:59.626Z,0.00
2018-02-09T00:58:59.546Z,0.00
2018-02-09T00:59:59.639Z,0.00
2018-02-09T01:00:59.542Z,0.00
2018-02-09T01:01:59.644Z,0.00
2018-02-09T01:02:59.546Z,0.00
2018-02-09T01:03:59.557Z,0.00
2018-02-09T01:04:59.540Z,0.00
2018-02-09T01:05:59.574Z,0.00
2018-02-09T01:06:59.549Z,0.00
2018-02-09T01:07:59.582Z,0.00
2018-02-09T01:08:59.540Z,0.00
2018-02-09T01:09:59.596Z,0.00
2018-02-09T01:10:59.553Z,0.00
2018-02-09T01:11:59.606Z,0.00
2018-02-09T01:12:59.538Z,0.00
2018-02-09T01:13:59.623Z,0.00
2018-02-09T01:14:59.543Z,0.00
2018-02-09T01:15:59.634Z,0.00
2018-02-09T01:16:59.541Z,0.00
2018-02-09T01:17:59.650Z,0.00
2018-02-09T01:18:59.538Z,0.00
2018-02-09T01:19:59.563Z,0.00
2018-02-09T01:20:59.540Z,0.00
2018-02-09T01:21:59.570Z,0.00
2018-02-09T01:22:59.540Z,0.00
2018-02-09T01:23:59.584Z,0.00
2018-02-09T01:24:59.539Z,0.00
2018-02-09T01:25:59.597Z,0.00
2018-02-09T01:26:59.539Z,0.00
2018-02-09T01:27:59.610Z,0.00
2018-02-09T01:28:59.540Z,0.00
2018-02-09T01:29:59.622Z,0.00
2018-02-09T01:30:59.536Z,0.00
2018-02-09T01:31:59.638Z,0.00
2018-02-09T01:32:59.544Z,0.00
2018-02-09T01:33:59.651Z,0.00
2018-02-09T01:34:59.538Z,0.00
2018-02-09T01:35:59.562Z,0.00
2018-02-09T01:36:59.537Z,0.00
2018-02-09T01:37:59.576Z,0.00
2018-02-09T01:38:59.592Z,0.00
2018-02-09T01:39:59.585Z,0.00
2018-02-09T01:40:59.538Z,0.00
2018-02-09T01:41:59.600Z,0.00
2018-02-09T01:42:59.532Z,0.00
2018-02-09T01:43:59.616Z,0.00
2018-02-09T01:44:59.538Z,0.00
2018-02-09T01:45:59.628Z,0.00
2018-02-09T01:46:59.537Z,0.00
2018-02-09T01:47:59.644Z,0.00
2018-02-09T01:48:59.534Z,0.00
2018-02-09T01:49:59.546Z,0.00
2018-02-09T01:50:59.535Z,0.00
2018-02-09T01:51:59.561Z,0.00
2018-02-09T01:52:59.537Z,0.00
2018-02-09T01:53:59.582Z,0.00
2018-02-09T01:54:59.534Z,0.00
2018-02-09T01:55:59.588Z,0.00
2018-02-09T01:56:59.544Z,0.00
2018-02-09T01:57:59.600Z,0.00
2018-02-09T01:58:59.535Z,0.00
2018-02-09T01:59:59.619Z,0.00
2018-02-09T02:00:59.533Z,0.00
2018-02-09T02:01:59.630Z,0.00
2018-02-09T02:02:59.546Z,0.00
2018-02-09T02:03:59.641Z,0.00
2018-02-09T02:04:59.534Z,0.00
2018-02-09T02:05:59.550Z,0.00
2018-02-09T02:06:59.526Z,0.00
2018-02-09T02:07:59.665Z,0.00
2018-02-09T02:08:59.530Z,0.00
2018-02-09T02:09:59.582Z,0.00
2018-02-09T02:10:59.534Z,0.00
2018-02-09T02:11:59.590Z,0.00
2018-02-09T02:12:59.530Z,0.00
2018-02-09T02:14:00.629Z,0.00
2018-02-09T02:14:59.528Z,0.00
2018-02-09T02:15:59.617Z,0.00
2018-02-09T02:16:59.536Z,0.00
2018-02-09T02:17:59.636Z,0.00
2018-02-09T02:18:59.536Z,0.00
2018-02-09T02:19:59.632Z,0.00
2018-02-09T02:20:59.528Z,0.00
2018-02-09T02:22:00.577Z,0.00
2018-02-09T02:22:59.535Z,0.00
2018-02-09T02:23:59.556Z,0.00
2018-02-09T02:24:59.522Z,0.00
2018-02-09T02:25:59.579Z,0.00
2018-02-09T02:26:59.526Z,0.00
2018-02-09T02:27:59.584Z,0.00
2018-02-09T02:28:59.521Z,0.00
2018-02-09T02:29:59.594Z,0.00
2018-02-09T02:30:59.528Z,0.00
2018-02-09T02:31:59.610Z,0.00
2018-02-09T02:32:59.525Z,0.00
2018-02-09T02:33:59.623Z,0.00
2018-02-09T02:34:59.525Z,0.00
2018-02-09T02:35:59.649Z,0.00
2018-02-09T02:36:59.518Z,0.00
2018-02-09T02:37:59.548Z,0.00
2018-02-09T02:38:59.522Z,0.00
2018-02-09T02:39:59.559Z,0.00
2018-02-09T02:40:59.521Z,0.00
2018-02-09T02:41:59.612Z,0.00
2018-02-09T02:42:59.526Z,0.00
2018-02-09T02:43:59.579Z,0.00
2018-02-09T02:44:59.520Z,0.00
2018-02-09T02:45:59.597Z,0.00
2018-02-09T02:46:59.520Z,0.00
2018-02-09T02:47:59.610Z,0.00
2018-02-09T02:48:59.524Z,0.00
2018-02-09T02:49:59.634Z,0.00
2018-02-09T02:50:59.523Z,0.00
2018-02-09T02:51:59.535Z,0.00
2018-02-09T02:52:59.518Z,0.00
2018-02-09T02:53:59.545Z,0.00
2018-02-09T02:54:59.524Z,0.00
2018-02-09T02:55:59.522Z,0.00
2018-02-09T02:56:59.527Z,0.00
2018-02-09T02:57:59.590Z,0.00
2018-02-09T02:58:59.514Z,0.00
2018-02-09T02:59:59.584Z,0.00
2018-02-09T03:00:59.516Z,0.00
2018-02-09T03:01:59.600Z,0.00
2018-02-09T03:02:59.526Z,0.00
2018-02-09T03:03:59.615Z,0.00
2018-02-09T03:04:59.520Z,0.00
2018-02-09T03:05:59.625Z,0.00
2018-02-09T03:06:59.516Z,0.00
2018-02-09T03:07:59.534Z,0.00
2018-02-09T03:08:59.513Z,0.00
2018-02-09T03:09:59.544Z,0.00
2018-02-09T03:10:59.513Z,0.00
2018-02-09T03:11:59.561Z,0.00
2018-02-09T03:12:59.508Z,0.00
2018-02-09T03:13:59.575Z,0.00
2018-02-09T03:14:59.509Z,0.00
2018-02-09T03:15:59.589Z,0.00
2018-02-09T03:16:59.506Z,0.00
2018-02-09T03:17:59.598Z,0.00
2018-02-09T03:18:59.509Z,0.00
2018-02-09T03:19:59.613Z,0.00
2018-02-09T03:20:59.511Z,0.00
2018-02-09T03:21:59.519Z,0.00
2018-02-09T03:22:59.502Z,0.00
2018-02-09T03:23:59.537Z,0.00
2018-02-09T03:24:59.502Z,0.00
2018-02-09T03:25:59.544Z,0.00
2018-02-09T03:26:59.519Z,0.00
2018-02-09T03:27:59.562Z,0.00
2018-02-09T03:28:59.501Z,0.00
2018-02-09T03:29:59.574Z,0.00
2018-02-09T03:30:59.516Z,0.00
2018-02-09T03:31:59.585Z,0.00
2018-02-09T03:32:59.500Z,0.00
2018-02-09T03:33:59.596Z,0.00
2018-02-09T03:34:59.501Z,0.00
2018-02-09T03:35:59.609Z,0.00
2018-02-09T03:36:59.512Z,0.00
2018-02-09T03:37:59.530Z,0.00
2018-02-09T03:38:59.510Z,0.00
2018-02-09T03:39:59.531Z,0.00
2018-02-09T03:40:59.504Z,0.00
2018-02-09T03:41:59.547Z,0.00
2018-02-09T03:42:59.496Z,0.00
2018-02-09T03:43:59.567Z,0.00
2018-02-09T03:44:59.500Z,0.00
2018-02-09T03:45:59.575Z,0.00
2018-02-09T03:46:59.503Z,0.00
2018-02-09T03:47:59.586Z,0.00
2018-02-09T03:48:59.496Z,0.00
2018-02-09T03:49:59.604Z,0.00
2018-02-09T03:50:59.501Z,0.00
2018-02-09T03:51:59.510Z,0.00
2018-02-09T03:52:59.495Z,0.00
2018-02-09T03:53:59.522Z,0.00
2018-02-09T03:54:59.502Z,0.00
2018-02-09T03:55:59.535Z,0.00
2018-02-09T03:56:59.495Z,0.00
2018-02-09T03:57:59.547Z,0.00
2018-02-09T03:58:59.492Z,0.00
2018-02-09T03:59:59.564Z,0.00
2018-02-09T04:00:59.493Z,0.00
2018-02-09T04:01:59.576Z,0.00
2018-02-09T04:02:59.491Z,0.00
2018-02-09T04:03:59.587Z,0.00
2018-02-09T04:04:59.486Z,0.00
2018-02-09T04:05:59.601Z,0.00
2018-02-09T04:06:59.486Z,0.00
2018-02-09T04:07:59.607Z,0.00
2018-02-09T04:08:59.510Z,0.00
2018-02-09T04:09:59.523Z,0.00
2018-02-09T04:10:59.486Z,0.00
2018-02-09T04:11:59.541Z,0.00
2018-02-09T04:12:59.489Z,0.00
2018-02-09T04:13:59.550Z,0.00
2018-02-09T04:14:59.490Z,0.00
2018-02-09T04:15:59.563Z,0.00
2018-02-09T04:16:59.494Z,0.00
2018-02-09T04:17:59.575Z,0.00
2018-02-09T04:18:59.485Z,0.00
2018-02-09T04:19:59.589Z,0.00
2018-02-09T04:20:59.479Z,0.00
2018-02-09T04:21:59.509Z,0.00
2018-02-09T04:22:59.481Z,0.00
2018-02-09T04:23:59.510Z,0.00
2018-02-09T04:24:59.480Z,0.00
2018-02-09T04:25:59.524Z,0.00
2018-02-09T04:26:59.478Z,0.00
2018-02-09T04:27:59.539Z,0.00
2018-02-09T04:28:59.472Z,0.00
2018-02-09T04:29:59.561Z,0.00
2018-02-09T04:30:59.477Z,0.00
2018-02-09T04:31:59.563Z,0.00
2018-02-09T04:32:59.476Z,0.00
2018-02-09T04:33:59.579Z,0.00
2018-02-09T04:34:59.480Z,0.00
2018-02-09T04:35:59.487Z,0.00
2018-02-09T04:36:59.472Z,0.00
2018-02-09T04:37:59.503Z,0.00
2018-02-09T04:38:59.477Z,0.00
2018-02-09T04:39:59.508Z,0.00
2018-02-09T04:40:59.466Z,0.00
2018-02-09T04:41:59.518Z,0.00
2018-02-09T04:42:59.469Z,0.00
2018-02-09T04:43:59.541Z,0.00
2018-02-09T04:44:59.469Z,0.00
2018-02-09T04:45:59.550Z,0.00
2018-02-09T04:46:59.470Z,0.00
2018-02-09T04:48:00.492Z,0.00
2018-02-09T04:48:59.469Z,0.00
2018-02-09T04:49:59.579Z,0.00
2018-02-09T04:50:59.495Z,0.00
2018-02-09T04:51:59.485Z,0.00
2018-02-09T04:52:59.465Z,0.00
2018-02-09T04:53:59.526Z,0.00
2018-02-09T04:54:59.464Z,0.00
2018-02-09T04:55:59.524Z,0.00
2018-02-09T04:56:59.508Z,0.00
2018-02-09T04:57:59.523Z,0.00
2018-02-09T04:58:59.463Z,0.00
2018-02-09T04:59:59.537Z,0.00
2018-02-09T05:00:59.461Z,0.00
2018-02-09T05:01:59.547Z,0.00
2018-02-09T05:02:59.465Z,0.00
2018-02-09T05:03:59.590Z,0.00
2018-02-09T05:04:59.465Z,0.00
2018-02-09T05:06:00.503Z,0.00
2018-02-09T05:06:59.455Z,0.00
2018-02-09T05:07:59.487Z,0.00
2018-02-09T05:08:59.459Z,0.00
2018-02-09T05:09:59.495Z,0.00
2018-02-09T05:10:59.452Z,0.00
2018-02-09T05:11:59.512Z,0.00
2018-02-09T05:12:59.449Z,0.00
2018-02-09T05:13:59.524Z,0.00
2018-02-09T05:14:59.460Z,0.00
2018-02-09T05:15:59.535Z,0.00
2018-02-09T05:16:59.453Z,0.00
2018-02-09T05:17:59.551Z,0.00
2018-02-09T05:18:59.449Z,0.00
2018-02-09T05:19:59.468Z,0.00
2018-02-09T05:20:59.448Z,0.00
2018-02-09T05:21:59.472Z,0.00
2018-02-09T05:22:59.448Z,0.00
2018-02-09T05:23:59.487Z,0.00
2018-02-09T05:24:59.443Z,0.00
2018-02-09T05:25:59.500Z,0.00
2018-02-09T05:26:59.444Z,0.00
2018-02-09T05:27:59.508Z,0.00
2018-02-09T05:28:59.452Z,0.00
2018-02-09T05:29:59.523Z,0.00
2018-02-09T05:30:59.442Z,0.00
2018-02-09T05:31:59.538Z,0.00
2018-02-09T05:32:59.439Z,0.00
2018-02-09T05:33:59.550Z,0.00
2018-02-09T05:34:59.437Z,0.00
2018-02-09T05:35:59.462Z,0.00
2018-02-09T05:36:59.436Z,0.00
2018-02-09T05:37:59.475Z,0.00
2018-02-09T05:38:59.436Z,0.00
2018-02-09T05:39:59.486Z,0.00
2018-02-09T05:40:59.443Z,0.00
2018-02-09T05:41:59.500Z,0.00
2018-02-09T05:42:59.441Z,0.00
2018-02-09T05:43:59.511Z,0.00
2018-02-09T05:44:59.455Z,0.00
2018-02-09T05:45:59.546Z,0.00
2018-02-09T05:46:59.433Z,0.00
2018-02-09T05:47:59.536Z,0.00
2018-02-09T05:48:59.434Z,0.00
2018-02-09T05:49:59.447Z,0.00
2018-02-09T05:50:59.427Z,0.00
2018-02-09T05:51:59.466Z,0.00
2018-02-09T05:52:59.426Z,0.00
2018-02-09T05:53:59.474Z,0.00
2018-02-09T05:54:59.439Z,0.00
2018-02-09T05:55:59.486Z,0.00
2018-02-09T05:56:59.429Z,0.00
2018-02-09T05:57:59.497Z,0.00
2018-02-09T05:58:59.425Z,0.00
2018-02-09T05:59:59.516Z,0.00
2018-02-09T06:00:59.431Z,0.00
2018-02-09T06:01:59.527Z,0.00
2018-02-09T06:02:59.425Z,0.00
2018-02-09T06:03:59.435Z,0.00
2018-02-09T06:04:59.420Z,0.00
2018-02-09T06:05:59.447Z,0.00
2018-02-09T06:06:59.417Z,0.00
2018-02-09T06:07:59.464Z,0.00
2018-02-09T06:08:59.419Z,0.00
2018-02-09T06:09:59.477Z,0.00
2018-02-09T06:10:59.418Z,0.00
2018-02-09T06:11:59.496Z,0.00
2018-02-09T06:12:59.418Z,0.00
2018-02-09T06:13:59.499Z,0.00
2018-02-09T06:14:59.413Z,0.00
2018-02-09T06:15:59.520Z,0.00
2018-02-09T06:16:59.413Z,0.00
2018-02-09T06:17:59.544Z,0.00
2018-02-09T06:18:59.420Z,0.00
2018-02-09T06:19:59.410Z,0.00
2018-02-09T06:20:59.430Z,0.00
2018-02-09T06:21:59.412Z,0.00
2018-02-09T06:22:59.408Z,0.00
2018-02-09T06:23:59.413Z,0.00
2018-02-09T06:24:59.421Z,0.00
2018-02-09T06:25:59.415Z,0.00
2018-02-09T06:26:59.407Z,4.00
2018-02-09T06:27:59.413Z,4.00
2018-02-09T06:28:59.402Z,0.00
2018-02-09T06:29:59.415Z,0.00
2018-02-09T06:30:59.403Z,4.00
2018-02-09T06:31:59.414Z,0.00
2018-02-09T06:32:59.605Z,4.00
2018-02-09T06:33:59.414Z,4.00
2018-02-09T06:34:59.400Z,4.00
2018-02-09T06:35:59.402Z,4.00
2018-02-09T06:36:59.407Z,4.00
2018-02-09T06:37:59.398Z,8.00
2018-02-09T06:38:59.398Z,8.00
2018-02-09T06:39:59.407Z,8.00
2018-02-09T06:40:59.401Z,8.00
2018-02-09T06:41:59.508Z,8.00
2018-02-09T06:42:59.398Z,12.00
2018-02-09T06:43:59.414Z,12.00
2018-02-09T06:44:59.399Z,16.00
2018-02-09T06:45:59.425Z,20.00
2018-02-09T06:46:59.392Z,20.00
2018-02-09T06:47:59.442Z,24.00
2018-02-09T06:48:59.390Z,24.00
2018-02-09T06:49:59.461Z,32.00
2018-02-09T06:50:59.389Z,32.00
2018-02-09T06:51:59.466Z,36.00
2018-02-09T06:52:59.394Z,44.00
2018-02-09T06:53:59.482Z,44.00
2018-02-09T06:54:59.404Z,52.00
2018-02-09T06:55:59.516Z,56.00
2018-02-09T06:56:59.394Z,60.00
2018-02-09T06:57:59.413Z,68.00
2018-02-09T06:58:59.385Z,72.00
2018-02-09T06:59:59.423Z,84.00
2018-02-09T07:00:59.385Z,88.00
2018-02-09T07:01:59.437Z,92.00
2018-02-09T07:02:59.376Z,104.00
2018-02-09T07:03:59.446Z,112.00
2018-02-09T07:04:59.375Z,120.00
2018-02-09T07:05:59.474Z,128.00
2018-02-09T07:06:59.380Z,140.00
2018-02-09T07:07:59.488Z,148.00
2018-02-09T07:08:59.379Z,156.00
2018-02-09T07:09:59.389Z,168.00
2018-02-09T07:10:59.377Z,180.00
2018-02-09T07:11:59.429Z,188.00
2018-02-09T07:12:59.383Z,200.00
2018-02-09T07:13:59.414Z,212.00
2018-02-09T07:14:59.381Z,224.00
2018-02-09T07:15:59.429Z,236.00
2018-02-09T07:16:59.400Z,252.00
2018-02-09T07:17:59.373Z,260.00
2018-02-09T07:18:59.370Z,272.00
2018-02-09T07:19:59.369Z,284.00
2018-02-09T07:20:59.369Z,292.00
2018-02-09T07:21:59.378Z,304.00
2018-02-09T07:22:59.377Z,316.00
2018-02-09T07:24:00.375Z,328.00
2018-02-09T07:24:59.371Z,336.00
2018-02-09T07:25:59.367Z,348.00
2018-02-09T07:26:59.365Z,360.00
2018-02-09T07:27:59.366Z,372.00
2018-02-09T07:28:59.370Z,384.00
2018-02-09T07:29:59.397Z,396.00
2018-02-09T07:30:59.362Z,408.00
2018-02-09T07:31:59.370Z,416.00
2018-02-09T07:32:59.355Z,432.00
2018-02-09T07:33:59.377Z,444.00
2018-02-09T07:34:59.365Z,456.00
2018-02-09T07:35:59.364Z,468.00
2018-02-09T07:36:59.361Z,480.00
2018-02-09T07:37:59.425Z,492.00
2018-02-09T07:38:59.357Z,512.00
2018-02-09T07:39:59.355Z,524.00
2018-02-09T07:40:59.355Z,536.00
2018-02-09T07:41:59.355Z,544.00
2018-02-09T07:42:59.354Z,556.00
2018-02-09T07:43:59.350Z,564.00
2018-02-09T07:44:59.349Z,584.00
2018-02-09T07:45:59.350Z,592.00
2018-02-09T07:46:59.350Z,612.00
2018-02-09T07:47:59.352Z,624.00
2018-02-09T07:48:59.347Z,632.00
2018-02-09T07:49:59.354Z,628.00
2018-02-09T07:50:59.347Z,644.00
2018-02-09T07:51:59.350Z,664.00
2018-02-09T07:52:59.348Z,672.00
2018-02-09T07:53:59.353Z,676.00
2018-02-09T07:54:59.341Z,696.00
2018-02-09T07:55:59.348Z,712.00
2018-02-09T07:56:59.345Z,728.00
2018-02-09T07:57:59.348Z,744.00
2018-02-09T07:58:59.348Z,752.00
2018-02-09T07:59:59.340Z,756.00
2018-02-09T08:00:59.407Z,748.00
2018-02-09T08:01:59.347Z,752.00
2018-02-09T08:02:59.353Z,772.00
2018-02-09T08:03:59.342Z,760.00
2018-02-09T08:04:59.332Z,760.00
2018-02-09T08:05:59.340Z,784.00
2018-02-09T08:06:59.328Z,776.00
2018-02-09T08:07:59.340Z,780.00
2018-02-09T08:08:59.331Z,804.00
2018-02-09T08:09:59.335Z,808.00
2018-02-09T08:10:59.349Z,812.00
2018-02-09T08:11:59.340Z,820.00
2018-02-09T08:12:59.329Z,820.00
2018-02-09T08:14:00.333Z,816.00
2018-02-09T08:14:59.325Z,824.00
2018-02-09T08:15:59.327Z,840.00
2018-02-09T08:16:59.342Z,852.00
2018-02-09T08:17:59.332Z,860.00
2018-02-09T08:18:59.327Z,864.00
2018-02-09T08:19:59.332Z,852.00
2018-02-09T08:20:59.328Z,840.00
2018-02-09T08:21:59.327Z,856.00
2018-02-09T08:22:59.324Z,864.00
2018-02-09T08:23:59.323Z,864.00
2018-02-09T08:24:59.323Z,888.00
2018-02-09T08:25:59.328Z,904.00
2018-02-09T08:26:59.319Z,916.00
2018-02-09T08:27:59.317Z,928.00
2018-02-09T08:28:59.320Z,936.00
2018-02-09T08:29:59.327Z,936.00
2018-02-09T08:30:59.324Z,944.00
2018-02-09T08:31:59.320Z,944.00
2018-02-09T08:32:59.312Z,948.00
2018-02-09T08:33:59.315Z,956.00
2018-02-09T08:34:59.312Z,936.00
2018-02-09T08:35:59.316Z,904.00
2018-02-09T08:36:59.332Z,920.00
2018-02-09T08:37:59.329Z,960.00
2018-02-09T08:38:59.307Z,976.00
2018-02-09T08:39:59.314Z,992.00
2018-02-09T08:40:59.308Z,992.00
2018-02-09T08:41:59.321Z,996.00
2018-02-09T08:42:59.307Z,1000.00
2018-02-09T08:43:59.316Z,1004.00
2018-02-09T08:44:59.304Z,1012.00
2018-02-09T08:45:59.304Z,1016.00
2018-02-09T08:46:59.303Z,1028.00
2018-02-09T08:47:59.305Z,1024.00
2018-02-09T08:48:59.301Z,1028.00
2018-02-09T08:49:59.313Z,1032.00
2018-02-09T08:50:59.311Z,1036.00
2018-02-09T08:51:59.303Z,1032.00
2018-02-09T08:52:59.300Z,1036.00
2018-02-09T08:53:59.317Z,1048.00
2018-02-09T08:54:59.304Z,1044.00
2018-02-09T08:55:59.305Z,1048.00
2018-02-09T08:56:59.308Z,1056.00
2018-02-09T08:57:59.293Z,1056.00
2018-02-09T08:58:59.299Z,1060.00
2018-02-09T08:59:59.309Z,1064.00
2018-02-09T09:00:59.307Z,1076.00
2018-02-09T09:01:59.299Z,1076.00
2018-02-09T09:02:59.293Z,1084.00
2018-02-09T09:04:00.304Z,1092.00
2018-02-09T09:04:59.309Z,1088.00
2018-02-09T09:05:59.288Z,1080.00
2018-02-09T09:06:59.292Z,1056.00
2018-02-09T09:07:59.302Z,1004.00
2018-02-09T09:08:59.295Z,1008.00
2018-02-09T09:09:59.316Z,1056.00
2018-02-09T09:10:59.292Z,1100.00
2018-02-09T09:11:59.334Z,1104.00
2018-02-09T09:12:59.288Z,1104.00
2018-02-09T09:13:59.347Z,1108.00
2018-02-09T09:14:59.284Z,1112.00
2018-02-09T09:15:59.357Z,1112.00
2018-02-09T09:16:59.284Z,1112.00
2018-02-09T09:17:59.374Z,1116.00
2018-02-09T09:18:59.285Z,1120.00
2018-02-09T09:19:59.361Z,1116.00
2018-02-09T09:20:59.287Z,1076.00
2018-02-09T09:21:59.345Z,1064.00
2018-02-09T09:22:59.292Z,1080.00
2018-02-09T09:23:59.362Z,1096.00
2018-02-09T09:24:59.281Z,1104.00
2018-02-09T09:25:59.383Z,1108.00
2018-02-09T09:26:59.280Z,1116.00
2018-02-09T09:27:59.383Z,1120.00
2018-02-09T09:28:59.281Z,1132.00
2018-02-09T09:29:59.294Z,1132.00
2018-02-09T09:30:59.284Z,1140.00
2018-02-09T09:31:59.309Z,1144.00
2018-02-09T09:32:59.278Z,1156.00
2018-02-09T09:33:59.329Z,1156.00
2018-02-09T09:34:59.280Z,1164.00
2018-02-09T09:35:59.381Z,1164.00
2018-02-09T09:36:59.277Z,1168.00
2018-02-09T09:37:59.300Z,1176.00
2018-02-09T09:38:59.282Z,1184.00
2018-02-09T09:39:59.304Z,1180.00
2018-02-09T09:40:59.301Z,1180.00
2018-02-09T09:41:59.328Z,1176.00
2018-02-09T09:42:59.278Z,1176.00
2018-02-09T09:43:59.342Z,1180.00
2018-02-09T09:44:59.281Z,1192.00
2018-02-09T09:45:59.349Z,1184.00
2018-02-09T09:46:59.275Z,1188.00
2018-02-09T09:47:59.356Z,1188.00
2018-02-09T09:48:59.282Z,1192.00
2018-02-09T09:49:59.379Z,1192.00
2018-02-09T09:50:59.277Z,1188.00
2018-02-09T09:51:59.391Z,1188.00
2018-02-09T09:52:59.270Z,1184.00
2018-02-09T09:53:59.303Z,1196.00
2018-02-09T09:54:59.275Z,1192.00
2018-02-09T09:55:59.313Z,1184.00
2018-02-09T09:56:59.275Z,1180.00
2018-02-09T09:57:59.319Z,1184.00
2018-02-09T09:58:59.286Z,1184.00
2018-02-09T09:59:59.357Z,1192.00
2018-02-09T10:00:59.281Z,1188.00
2018-02-09T10:01:59.341Z,1184.00
2018-02-09T10:02:59.286Z,1188.00
2018-02-09T10:03:59.365Z,1184.00
2018-02-09T10:04:59.277Z,1196.00
2018-02-09T10:05:59.375Z,1192.00
2018-02-09T10:06:59.280Z,1116.00
2018-02-09T10:07:59.388Z,1108.00
2018-02-09T10:08:59.278Z,1064.00
2018-02-09T10:09:59.294Z,1056.00
2018-02-09T10:10:59.280Z,1112.00
2018-02-09T10:11:59.311Z,1140.00
2018-02-09T10:12:59.276Z,1168.00
2018-02-09T10:13:59.320Z,1176.00
2018-02-09T10:14:59.292Z,1188.00
2018-02-09T10:16:00.371Z,1188.00
2018-02-09T10:16:59.294Z,1184.00
2018-02-09T10:17:59.351Z,1192.00
2018-02-09T10:18:59.294Z,1196.00
2018-02-09T10:19:59.367Z,1204.00
2018-02-09T10:20:59.277Z,1200.00
2018-02-09T10:21:59.432Z,1200.00
2018-02-09T10:22:59.283Z,1204.00
2018-02-09T10:23:59.294Z,1208.00
2018-02-09T10:24:59.303Z,1216.00
2018-02-09T10:25:59.310Z,1220.00
2018-02-09T10:26:59.283Z,1232.00
2018-02-09T10:27:59.326Z,1232.00
2018-02-09T10:28:59.281Z,1228.00
2018-02-09T10:29:59.414Z,1232.00
2018-02-09T10:30:59.283Z,1232.00
2018-02-09T10:31:59.313Z,1240.00
2018-02-09T10:32:59.284Z,1244.00
2018-02-09T10:33:59.319Z,1248.00
2018-02-09T10:34:59.296Z,1248.00
2018-02-09T10:35:59.333Z,1264.00
2018-02-09T10:36:59.285Z,1264.00
2018-02-09T10:37:59.352Z,1272.00
2018-02-09T10:38:59.291Z,1276.00
2018-02-09T10:39:59.363Z,1268.00
2018-02-09T10:40:59.287Z,1272.00
2018-02-09T10:41:59.372Z,1268.00
2018-02-09T10:42:59.283Z,1260.00
2018-02-09T10:43:59.391Z,1276.00
2018-02-09T10:44:59.304Z,1284.00
2018-02-09T10:45:59.405Z,1284.00
2018-02-09T10:46:59.293Z,1284.00
2018-02-09T10:47:59.319Z,1276.00
2018-02-09T10:48:59.338Z,1280.00
2018-02-09T10:49:59.325Z,1272.00
2018-02-09T10:50:59.290Z,1280.00
2018-02-09T10:51:59.339Z,1280.00
2018-02-09T10:52:59.298Z,1280.00
2018-02-09T10:53:59.350Z,1268.00
2018-02-09T10:54:59.291Z,1272.00
2018-02-09T10:55:59.376Z,1268.00
2018-02-09T10:56:59.292Z,1264.00
2018-02-09T10:57:59.384Z,1272.00
2018-02-09T10:58:59.295Z,1276.00
2018-02-09T10:59:59.387Z,1280.00
2018-02-09T11:00:59.298Z,1288.00
2018-02-09T11:01:59.342Z,1288.00
2018-02-09T11:02:59.296Z,1280.00
2018-02-09T11:03:59.404Z,1272.00
2018-02-09T11:04:59.307Z,1284.00
2018-02-09T11:05:59.364Z,1292.00
2018-02-09T11:06:59.294Z,1292.00
2018-02-09T11:07:59.313Z,1300.00
2018-02-09T11:08:59.296Z,1304.00
2018-02-09T11:09:59.330Z,1308.00
2018-02-09T11:10:59.301Z,1304.00
2018-02-09T11:11:59.351Z,1304.00
2018-02-09T11:12:59.316Z,1296.00
2018-02-09T11:13:59.364Z,1304.00
2018-02-09T11:14:59.303Z,1304.00
2018-02-09T11:15:59.384Z,1304.00
2018-02-09T11:16:59.305Z,1308.00
2018-02-09T11:17:59.387Z,1300.00
2018-02-09T11:18:59.306Z,1300.00
2018-02-09T11:19:59.324Z,1292.00
2018-02-09T11:20:59.310Z,1280.00
2018-02-09T11:21:59.305Z,1288.00
2018-02-09T11:22:59.307Z,1300.00
2018-02-09T11:23:59.303Z,1300.00
2018-02-09T11:24:59.309Z,1312.00
2018-02-09T11:25:59.309Z,1284.00
2018-02-09T11:26:59.335Z,1272.00
2018-02-09T11:27:59.305Z,1288.00
2018-02-09T11:28:59.328Z,1284.00
2018-02-09T11:29:59.312Z,1296.00
2018-02-09T11:30:59.309Z,1312.00
2018-02-09T11:31:59.315Z,1316.00
2018-02-09T11:32:59.317Z,1332.00
2018-02-09T11:33:59.316Z,1324.00
2018-02-09T11:34:59.317Z,1304.00
2018-02-09T11:35:59.315Z,1320.00
2018-02-09T11:36:59.362Z,1320.00
2018-02-09T11:37:59.319Z,1332.00
2018-02-09T11:38:59.380Z,1336.00
2018-02-09T11:39:59.329Z,1348.00
2018-02-09T11:40:59.410Z,1356.00
2018-02-09T11:41:59.321Z,1348.00
2018-02-09T11:42:59.346Z,1344.00
2018-02-09T11:43:59.334Z,1348.00
2018-02-09T11:44:59.342Z,1344.00
2018-02-09T11:45:59.340Z,1336.00
2018-02-09T11:46:59.387Z,1344.00
2018-02-09T11:47:59.329Z,1360.00
2018-02-09T11:48:59.359Z,1356.00
2018-02-09T11:49:59.329Z,1352.00
2018-02-09T11:50:59.335Z,1348.00
2018-02-09T11:51:59.513Z,1356.00
2018-02-09T11:52:59.343Z,1360.00
2018-02-09T11:53:59.421Z,1356.00
2018-02-09T11:54:59.337Z,1344.00
2018-02-09T11:55:59.404Z,1344.00
2018-02-09T11:56:59.340Z,1332.00
2018-02-09T11:57:59.423Z,1332.00
2018-02-09T11:58:59.341Z,1348.00
2018-02-09T11:59:59.441Z,1352.00
2018-02-09T12:00:59.375Z,1368.00
2018-02-09T12:01:59.345Z,1360.00
2018-02-09T12:02:59.354Z,1364.00
2018-02-09T12:03:59.346Z,1332.00
2018-02-09T12:04:59.344Z,1360.00
2018-02-09T12:06:01.358Z,1376.00
2018-02-09T12:06:59.399Z,1384.00
2018-02-09T12:07:59.379Z,1376.00
2018-02-09T12:08:59.350Z,1384.00
2018-02-09T12:09:59.440Z,1396.00
2018-02-09T12:10:59.350Z,1408.00
2018-02-09T12:11:59.465Z,1416.00
2018-02-09T12:12:59.363Z,1424.00
2018-02-09T12:13:59.462Z,1400.00
2018-02-09T12:14:59.371Z,1364.00
2018-02-09T12:15:59.472Z,1336.00
2018-02-09T12:16:59.370Z,1336.00
2018-02-09T12:17:59.401Z,1352.00
2018-02-09T12:18:59.371Z,1368.00
2018-02-09T12:19:59.407Z,1396.00
2018-02-09T12:20:59.365Z,1412.00
2018-02-09T12:21:59.418Z,1424.00
2018-02-09T12:22:59.387Z,1400.00
2018-02-09T12:23:59.421Z,1384.00
2018-02-09T12:24:59.381Z,1388.00
2018-02-09T12:25:59.560Z,1380.00
2018-02-09T12:26:59.383Z,1384.00
2018-02-09T12:27:59.460Z,1396.00
2018-02-09T12:28:59.386Z,1404.00
2018-02-09T12:29:59.488Z,1404.00
2018-02-09T12:30:59.390Z,1392.00
2018-02-09T12:31:59.489Z,1388.00
2018-02-09T12:32:59.395Z,1380.00
2018-02-09T12:33:59.501Z,1388.00
2018-02-09T12:34:59.390Z,1388.00
2018-02-09T12:35:59.518Z,1400.00
2018-02-09T12:36:59.390Z,1392.00
2018-02-09T12:37:59.459Z,1388.00
2018-02-09T12:38:59.390Z,1400.00
2018-02-09T12:39:59.447Z,1376.00
2018-02-09T12:40:59.397Z,1376.00
2018-02-09T12:41:59.508Z,1380.00
2018-02-09T12:42:59.454Z,1372.00
2018-02-09T12:43:59.475Z,1364.00
2018-02-09T12:44:59.413Z,1372.00
2018-02-09T12:45:59.456Z,1384.00
2018-02-09T12:46:59.418Z,1392.00